Swett, South Dakota
Current Conditions -  °F | °C
As of 2:21 PM on Monday 24 Nov 2014 (Local Time) from KIEN Reporting Station
Light Snow Light Snow  
Wind Chill: 23°   Ceiling: 3100
Heat Index: 31°   Visibility: 2.5mi
Dew Point: 28°   Wind: 9mph
Humidity: 89%   Direction: 360°N
Pressure: 29.98"   Gusts: NA
Location:  43.2013°N, 101.679°W
Report Text: KIEN 242121Z AUTO 36008KT 2 1/2SM -SN BR FEW017 OVC031 M01/M02 A2998 RMK AO2 P0000 T10061022
Loading
Personal Weather Stations






























Interactive Weather Map New forecast layout! Learn more

10-Day Weather Forecast

Advertisements
Track Severe Weather on mobile